Time;durP1;ratioP1;P1;durP2;ratioP2;P2;SDS_P1;SDS_P2;PMS_P1;PMS_P2;Temp;Humidity;BMP_temperature;BMP_pressure;BME280_temperature;BME280_humidity;BME280_pressure;Samples;Min_cycle;Max_cycle;Signal;HPM_P1;HPM_P2
2022/11/11 00:00:30;;;;;;;7.88;4.90;;;10.80;84.40;;;;;;4895838;29;20039;-73
2022/11/11 00:02:55;;;;;;;8.23;3.95;;;10.80;84.50;;;;;;4895837;29;20028;-73
2022/11/11 00:05:22;;;;;;;6.47;4.40;;;10.80;84.50;;;;;;4878968;29;20380;-72
2022/11/11 00:07:47;;;;;;;8.57;4.30;;;10.80;84.50;;;;;;4898576;29;20391;-72
2022/11/11 00:10:13;;;;;;;8.32;4.75;;;10.90;84.60;;;;;;4899175;29;20160;-72
2022/11/11 00:12:39;;;;;;;10.63;4.78;;;10.80;84.40;;;;;;4882261;29;20067;-73
2022/11/11 00:15:05;;;;;;;9.18;4.60;;;10.80;84.40;;;;;;4899248;29;20032;-73
2022/11/11 00:25:46;;;;;;;6.78;4.47;;;10.80;84.50;;;;;;4899201;29;20555;-72
2022/11/11 00:28:11;;;;;;;6.78;4.28;;;10.90;84.50;;;;;;4881943;29;20029;-73
2022/11/11 00:30:37;;;;;;;5.85;3.60;;;10.90;84.50;;;;;;4881921;29;20028;-74
2022/11/11 00:33:02;;;;;;;8.35;4.80;;;10.90;84.40;;;;;;4898832;29;20033;-72
2022/11/11 00:40:59;;;;;;;7.97;4.75;;;11.10;84.20;;;;;;4899018;29;20031;-73
2022/11/11 00:43:24;;;;;;;11.18;5.35;;;11.00;84.10;;;;;;4898582;29;20057;-73
2022/11/11 00:45:50;;;;;;;14.02;5.70;;;11.10;84.20;;;;;;4898612;29;20024;-73
2022/11/11 00:51:00;;;;;;;10.00;6.05;;;11.10;84.30;;;;;;4898789;29;20174;-73
2022/11/11 00:53:29;;;;;;;8.23;6.18;;;11.10;84.20;;;;;;4898417;29;20079;-74
2022/11/11 00:55:56;;;;;;;8.95;5.97;;;11.10;84.30;;;;;;4898340;29;20091;-73
2022/11/11 00:58:22;;;;;;;9.02;5.57;;;11.10;84.20;;;;;;4898208;29;20051;-73
2022/11/11 01:00:52;;;;;;;11.52;6.43;;;11.10;84.20;;;;;;4898225;29;20516;-73
2022/11/11 01:03:18;;;;;;;13.25;6.13;;;11.20;84.30;;;;;;4881235;29;20132;-73
2022/11/11 01:05:44;;;;;;;9.38;6.10;;;11.20;84.30;;;;;;4881451;29;20588;-74
2022/11/11 01:08:10;;;;;;;8.80;6.07;;;11.20;84.20;;;;;;4898134;29;20177;-73
2022/11/11 01:10:40;;;;;;;8.63;5.93;;;11.20;84.30;;;;;;4897984;29;20032;-73
2022/11/11 01:13:30;;;;;;;11.10;5.93;;;11.20;84.30;;;;;;4880750;29;20493;-74
2022/11/11 01:16:07;;;;;;;9.88;6.32;;;11.20;84.90;;;;;;4881077;29;20045;-74
2022/11/11 01:18:32;;;;;;;9.75;6.35;;;11.20;84.30;;;;;;4879930;29;20028;-73
2022/11/11 01:21:03;;;;;;;12.18;7.05;;;11.20;84.40;;;;;;4897774;29;20048;-73
2022/11/11 01:23:30;;;;;;;10.77;6.78;;;11.20;84.30;;;;;;4897715;29;20045;-74
2022/11/11 01:26:01;;;;;;;11.15;6.30;;;11.20;84.40;;;;;;4897895;29;20031;-72
2022/11/11 01:28:26;;;;;;;13.00;6.88;;;11.20;84.40;;;;;;4897871;29;20379;-74
2022/11/11 01:30:52;;;;;;;8.13;6.63;;;11.20;84.40;;;;;;4897755;29;20107;-73
2022/11/11 01:33:18;;;;;;;9.52;7.10;;;11.20;84.40;;;;;;4897657;29;20051;-74
2022/11/11 01:35:43;;;;;;;8.25;6.55;;;11.20;84.30;;;;;;4897827;29;20037;-73
2022/11/11 01:38:09;;;;;;;10.88;7.35;;;11.30;84.40;;;;;;4880879;29;20438;-73
2022/11/11 01:40:43;;;;;;;11.27;7.40;;;11.20;84.40;;;;;;4880851;29;20037;-73
2022/11/11 01:43:12;;;;;;;9.80;7.78;;;11.30;85.10;;;;;;4897438;29;20112;-73
2022/11/11 01:45:49;;;;;;;12.85;7.47;;;11.20;84.40;;;;;;4897281;29;20485;-73
2022/11/11 01:51:36;;;;;;;9.25;7.22;;;11.30;84.40;;;;;;4897360;29;20051;-73
2022/11/11 01:54:06;;;;;;;12.30;7.15;;;11.30;84.40;;;;;;4897191;29;20040;-73
2022/11/11 01:56:32;;;;;;;11.32;7.68;;;11.30;84.40;;;;;;4880220;29;20033;-73
2022/11/11 01:59:05;;;;;;;12.40;8.57;;;11.30;84.40;;;;;;4880113;29;20051;-75
2022/11/11 02:01:32;;;;;;;13.30;7.65;;;11.30;84.40;;;;;;4897398;29;20028;-72
2022/11/11 02:06:46;;;;;;;9.32;7.45;;;11.30;84.50;;;;;;4897059;29;20100;-73
2022/11/11 02:09:11;;;;;;;12.45;8.18;;;11.30;84.50;;;;;;4880054;29;20393;-72
2022/11/11 02:14:38;;;;;;;14.02;8.35;;;11.40;84.60;;;;;;4897056;29;20059;-73
2022/11/11 02:17:10;;;;;;;11.38;8.15;;;11.30;84.50;;;;;;4879843;29;20424;-72
2022/11/11 02:19:54;;;;;;;12.00;9.23;;;11.40;84.60;;;;;;4896760;29;20028;-72
2022/11/11 02:22:56;;;;;;;14.40;8.82;;;11.40;84.60;;;;;;4879899;29;20032;-73
2022/11/11 02:25:25;;;;;;;11.32;8.50;;;11.40;84.60;;;;;;4867443;29;20072;-72
2022/11/11 02:27:53;;;;;;;11.43;8.35;;;11.40;84.60;;;;;;4896570;29;20025;-73
2022/11/11 02:30:20;;;;;;;11.25;7.97;;;11.40;84.60;;;;;;4879276;29;20115;-72
2022/11/11 02:32:51;;;;;;;12.52;9.05;;;11.40;84.60;;;;;;4896509;29;20426;-72
2022/11/11 02:35:29;;;;;;;14.20;8.88;;;11.40;84.60;;;;;;4879604;29;20186;-73
2022/11/11 02:37:54;;;;;;;12.27;9.02;;;11.40;84.70;;;;;;4879521;29;20020;-72
2022/11/11 02:40:33;;;;;;;13.63;8.50;;;11.40;84.70;;;;;;4879502;29;20499;-72
2022/11/11 02:42:59;;;;;;;13.63;8.98;;;11.40;84.70;;;;;;4896398;29;20028;-72
2022/11/11 02:45:25;;;;;;;12.43;9.27;;;11.40;84.70;;;;;;4896316;29;20524;-73
2022/11/11 02:47:50;;;;;;;14.02;9.13;;;11.40;84.80;;;;;;4896666;29;20036;-73
2022/11/11 02:50:16;;;;;;;11.95;8.15;;;11.40;84.80;;;;;;4879596;29;20041;-72
2022/11/11 02:52:41;;;;;;;11.32;8.75;;;11.50;84.80;;;;;;4896264;29;20028;-72
2022/11/11 02:55:07;;;;;;;16.05;9.75;;;11.40;84.80;;;;;;4896182;29;20064;-73
2022/11/11 02:57:34;;;;;;;13.20;9.02;;;11.50;85.50;;;;;;4896288;29;20021;-72
2022/11/11 02:59:59;;;;;;;11.45;8.63;;;11.40;84.80;;;;;;4896305;29;20052;-73
2022/11/11 03:02:26;;;;;;;11.60;8.43;;;11.50;84.90;;;;;;4896086;29;20063;-72
2022/11/11 03:04:56;;;;;;;14.85;9.18;;;11.50;84.90;;;;;;4896159;29;20533;-72
2022/11/11 03:07:23;;;;;;;15.43;8.85;;;11.50;84.90;;;;;;4896259;29;20438;-72
2022/11/11 03:09:48;;;;;;;13.27;8.52;;;11.50;84.90;;;;;;4896038;29;20028;-72
2022/11/11 03:12:14;;;;;;;11.65;8.35;;;11.50;84.90;;;;;;4895979;29;20064;-72
2022/11/11 03:14:40;;;;;;;12.73;8.88;;;11.50;84.90;;;;;;4879022;29;20029;-73
2022/11/11 03:19:50;;;;;;;15.48;7.78;;;11.50;84.90;;;;;;4896270;29;20504;-72
2022/11/11 03:22:16;;;;;;;12.07;8.15;;;11.50;84.90;;;;;;4896100;29;20025;-74
2022/11/11 03:27:26;;;;;;;11.05;7.97;;;11.50;85.00;;;;;;4896417;29;20117;-72
2022/11/11 03:29:51;;;;;;;13.60;8.50;;;11.50;85.00;;;;;;4896041;29;20059;-73
2022/11/11 03:32:17;;;;;;;11.02;7.45;;;11.50;85.00;;;;;;4879156;29;20068;-74
2022/11/11 03:34:43;;;;;;;14.55;7.88;;;11.50;85.00;;;;;;4896238;29;20461;-73
2022/11/11 03:39:54;;;;;;;10.77;8.05;;;11.50;85.00;;;;;;4896040;29;20044;-72
2022/11/11 03:42:20;;;;;;;11.38;7.93;;;11.50;85.00;;;;;;4897707;29;20037;-71
2022/11/11 03:44:45;;;;;;;13.07;8.63;;;11.50;85.10;;;;;;4882233;29;20271;-72
2022/11/11 03:47:11;;;;;;;12.18;8.05;;;11.50;85.10;;;;;;4899171;29;20062;-73
2022/11/11 03:49:37;;;;;;;10.48;8.45;;;11.50;85.10;;;;;;4899393;29;20032;-72
2022/11/11 03:52:03;;;;;;;11.75;7.93;;;11.50;85.10;;;;;;4899224;29;20025;-71
2022/11/11 03:54:28;;;;;;;11.52;7.45;;;11.50;85.10;;;;;;4899126;29;20028;-72
2022/11/11 03:57:29;;;;;;;15.48;8.27;;;11.60;85.20;;;;;;4899176;29;20036;-72
2022/11/11 03:59:39;;;;;;;11.50;7.93;;;11.50;85.10;;;;;;4898846;29;20061;-72
2022/11/11 04:10:22;;;;;;;11.63;8.02;;;11.50;85.10;;;;;;4899339;29;20108;-73
2022/11/11 04:21:41;;;;;;;13.60;7.78;;;11.50;85.20;;;;;;4899160;29;20400;-73
2022/11/11 04:23:47;;;;;;;12.07;7.57;;;11.40;85.20;;;;;;4899136;29;20136;-72
2022/11/11 04:26:12;;;;;;;11.98;7.93;;;11.40;85.20;;;;;;4898646;29;20052;-72
2022/11/11 04:31:22;;;;;;;10.00;7.10;;;11.40;85.30;;;;;;4898972;29;20404;-73
2022/11/11 04:33:47;;;;;;;9.73;7.80;;;11.40;85.20;;;;;;4898799;29;20032;-72
2022/11/11 04:36:13;;;;;;;11.38;7.13;;;11.40;85.20;;;;;;4881588;29;20057;-71
2022/11/11 04:41:22;;;;;;;10.98;7.28;;;11.40;85.30;;;;;;4898848;29;20120;-72
2022/11/11 04:45:26;;;;;;;11.15;7.78;;;11.40;85.30;;;;;;4898371;29;20506;-72
2022/11/11 04:46:39;;;;;;;11.40;7.65;;;11.40;85.20;;;;;;4898194;29;20045;-71
2022/11/11 04:49:05;;;;;;;12.52;7.35;;;11.40;85.30;;;;;;4881360;29;20021;-71
2022/11/11 04:52:25;;;;;;;9.48;7.28;;;11.30;85.30;;;;;;4881333;29;20107;-73
2022/11/11 04:54:16;;;;;;;11.13;7.38;;;11.30;85.40;;;;;;4898031;29;20047;-72
2022/11/11 04:56:48;;;;;;;11.63;7.30;;;11.40;85.40;;;;;;4898454;29;20103;-71
2022/11/11 04:59:18;;;;;;;12.10;7.80;;;11.40;85.40;;;;;;4898152;29;20029;-72
2022/11/11 05:04:29;;;;;;;10.32;7.18;;;11.30;85.30;;;;;;4897925;29;20128;-72
2022/11/11 05:09:38;;;;;;;11.02;7.78;;;11.30;85.30;;;;;;4898067;29;20036;-72
2022/11/11 05:12:04;;;;;;;9.82;6.80;;;11.30;85.40;;;;;;4897911;29;20041;-71
2022/11/11 05:22:42;;;;;;;14.23;7.63;;;11.30;85.40;;;;;;4897935;29;20159;-73
2022/11/11 05:25:25;;;;;;;12.30;7.10;;;11.30;85.50;;;;;;4897566;29;20040;-72
2022/11/11 05:27:52;;;;;;;10.07;6.63;;;11.30;85.40;;;;;;4880749;29;20020;-72
2022/11/11 05:30:19;;;;;;;9.30;6.85;;;11.30;85.50;;;;;;4897493;29;20055;-72
2022/11/11 05:32:45;;;;;;;11.10;6.88;;;11.30;85.40;;;;;;4897688;29;20034;-72
2022/11/11 05:35:12;;;;;;;10.57;7.22;;;11.30;85.40;;;;;;4897454;29;20391;-72
2022/11/11 05:37:37;;;;;;;9.35;6.50;;;11.30;85.40;;;;;;4880892;29;20024;-73
2022/11/11 05:40:04;;;;;;;9.77;6.97;;;11.30;85.40;;;;;;4897638;29;20029;-72
2022/11/11 05:42:30;;;;;;;11.65;7.00;;;11.30;85.30;;;;;;4897529;29;20024;-73
2022/11/11 05:44:55;;;;;;;9.25;7.05;;;11.30;85.30;;;;;;4897490;29;20055;-73
2022/11/11 05:47:21;;;;;;;9.13;6.47;;;11.40;85.30;;;;;;4897651;29;20400;-73
2022/11/11 05:49:47;;;;;;;12.40;7.15;;;11.40;85.30;;;;;;4880607;29;20032;-72
2022/11/11 05:52:15;;;;;;;9.77;7.30;;;11.30;85.30;;;;;;4897368;29;20021;-72
2022/11/11 05:54:41;;;;;;;10.35;7.00;;;11.30;85.30;;;;;;4897362;29;20020;-73
2022/11/11 05:57:07;;;;;;;11.13;6.70;;;11.30;85.40;;;;;;4897536;29;20115;-72
2022/11/11 05:59:33;;;;;;;10.93;6.97;;;11.30;85.30;;;;;;4880487;29;20115;-72
2022/11/11 06:01:58;;;;;;;11.10;7.07;;;11.30;85.40;;;;;;4880233;29;20025;-72
2022/11/11 06:04:25;;;;;;;9.02;6.57;;;11.30;85.40;;;;;;4896646;29;20025;-72
2022/11/11 06:06:50;;;;;;;10.73;6.57;;;11.30;85.40;;;;;;4880216;29;20025;-72
2022/11/11 06:09:16;;;;;;;11.13;6.60;;;11.30;85.40;;;;;;4897214;29;20077;-72
2022/11/11 06:11:41;;;;;;;11.32;6.47;;;11.30;86.00;;;;;;4880490;29;20025;-72
2022/11/11 06:14:07;;;;;;;11.77;6.68;;;11.30;85.40;;;;;;4880242;29;20028;-71
2022/11/11 06:16:33;;;;;;;8.95;6.80;;;11.30;85.40;;;;;;4880318;29;20024;-73
2022/11/11 06:18:59;;;;;;;11.00;6.80;;;11.20;85.30;;;;;;4896868;29;20040;-73
2022/11/11 06:21:26;;;;;;;10.70;6.45;;;11.20;85.40;;;;;;4880228;29;20033;-71
2022/11/11 06:23:51;;;;;;;11.98;6.38;;;11.20;85.50;;;;;;4897100;29;20072;-74
2022/11/11 06:26:17;;;;;;;10.18;6.43;;;11.20;85.50;;;;;;4897055;29;20021;-71
2022/11/11 06:28:45;;;;;;;8.93;6.75;;;11.20;85.50;;;;;;4897113;29;20109;-72
2022/11/11 06:31:19;;;;;;;8.23;5.85;;;11.20;85.50;;;;;;4880423;29;20117;-71
2022/11/11 06:33:45;;;;;;;8.95;6.65;;;11.20;85.50;;;;;;4896796;29;20393;-71
2022/11/11 06:36:13;;;;;;;9.82;6.93;;;11.20;85.40;;;;;;4896857;29;20032;-71
2022/11/11 06:38:39;;;;;;;8.13;6.32;;;11.20;85.40;;;;;;4896886;29;20044;-74
2022/11/11 06:41:05;;;;;;;12.80;6.65;;;11.20;85.40;;;;;;4896993;29;20437;-71
2022/11/11 06:43:31;;;;;;;11.15;6.90;;;11.20;85.40;;;;;;4896601;29;20104;-74
2022/11/11 06:45:57;;;;;;;9.57;6.78;;;11.20;85.40;;;;;;4879853;29;20024;-71
2022/11/11 06:48:24;;;;;;;11.05;7.32;;;11.20;85.40;;;;;;4879903;29;20016;-72
2022/11/11 06:50:51;;;;;;;9.88;6.80;;;11.20;85.40;;;;;;4896754;29;20027;-73
2022/11/11 06:53:18;;;;;;;10.43;7.20;;;11.20;85.40;;;;;;4896533;29;20025;-71
2022/11/11 06:55:43;;;;;;;9.65;7.35;;;11.20;85.40;;;;;;4896691;29;20032;-72
2022/11/11 06:58:12;;;;;;;10.60;7.57;;;11.20;85.40;;;;;;4896727;29;20029;-72
2022/11/11 07:00:38;;;;;;;11.48;8.13;;;11.10;85.30;;;;;;4896573;29;20035;-71
2022/11/11 07:03:05;;;;;;;12.93;8.60;;;11.20;85.40;;;;;;4896565;29;20029;-71
2022/11/11 07:05:32;;;;;;;13.60;9.07;;;11.10;85.40;;;;;;4896507;29;20393;-71
2022/11/11 07:08:04;;;;;;;13.63;8.98;;;11.10;85.40;;;;;;4879726;29;20025;-72
2022/11/11 07:10:31;;;;;;;11.40;8.60;;;11.10;85.40;;;;;;4896625;29;20477;-72
2022/11/11 07:12:57;;;;;;;12.35;9.13;;;11.10;85.30;;;;;;4879561;29;20068;-72
2022/11/11 07:15:22;;;;;;;12.10;8.60;;;11.10;85.30;;;;;;4897215;29;20070;-72
2022/11/11 07:17:48;;;;;;;13.25;9.23;;;11.10;85.20;;;;;;4883721;29;20060;-72
2022/11/11 07:20:13;;;;;;;11.45;8.60;;;11.10;85.20;;;;;;4883612;29;20036;-73
2022/11/11 07:22:39;;;;;;;13.07;9.05;;;11.20;85.20;;;;;;4900651;29;20048;-71
2022/11/11 07:25:05;;;;;;;11.70;9.38;;;11.20;85.10;;;;;;4900571;29;20469;-72
2022/11/11 07:27:31;;;;;;;13.52;9.55;;;11.10;85.00;;;;;;4900897;29;20469;-71
2022/11/11 07:29:56;;;;;;;13.77;9.10;;;11.10;85.00;;;;;;4900792;29;20105;-72
2022/11/11 07:32:22;;;;;;;12.10;8.68;;;11.10;84.90;;;;;;4900854;29;20469;-71
2022/11/11 07:34:49;;;;;;;13.30;8.93;;;11.10;84.90;;;;;;4900941;29;20033;-71
2022/11/11 07:37:15;;;;;;;12.50;9.55;;;11.10;84.90;;;;;;4884279;29;20499;-71
2022/11/11 07:39:40;;;;;;;14.63;9.75;;;11.10;84.90;;;;;;4901185;29;20032;-71
2022/11/11 07:42:09;;;;;;;13.93;10.30;;;11.10;84.80;;;;;;4901458;29;20051;-72
2022/11/11 07:44:34;;;;;;;14.27;9.95;;;11.10;84.80;;;;;;4901560;29;20028;-71
2022/11/11 07:47:00;;;;;;;13.25;10.07;;;11.00;84.80;;;;;;4884589;29;20036;-72
2022/11/11 07:49:25;;;;;;;15.90;10.43;;;11.00;84.70;;;;;;4901844;29;20031;-72
2022/11/11 07:51:51;;;;;;;15.65;10.45;;;11.00;84.70;;;;;;4903869;29;20077;-72
2022/11/11 07:54:16;;;;;;;13.80;9.93;;;10.90;84.60;;;;;;4905729;29;20029;-71
2022/11/11 07:56:42;;;;;;;13.90;9.82;;;10.90;84.60;;;;;;4888400;29;20028;-72
2022/11/11 07:59:07;;;;;;;14.38;10.32;;;10.90;84.60;;;;;;4907811;29;20028;-72
2022/11/11 08:01:33;;;;;;;13.70;10.55;;;10.90;84.50;;;;;;4889326;29;20039;-73
2022/11/11 08:03:58;;;;;;;13.55;10.25;;;10.90;84.50;;;;;;4907638;29;20056;-72
2022/11/11 08:06:24;;;;;;;16.20;11.05;;;10.80;84.50;;;;;;4909371;29;20081;-72
2022/11/11 08:08:50;;;;;;;13.02;10.23;;;10.80;84.40;;;;;;4891724;29;20058;-72
2022/11/11 08:11:16;;;;;;;16.23;10.57;;;10.80;84.40;;;;;;4890681;29;20048;-72
2022/11/11 08:13:43;;;;;;;14.60;9.85;;;10.80;84.40;;;;;;4912521;29;20056;-72
2022/11/11 08:16:10;;;;;;;15.68;10.77;;;10.80;84.40;;;;;;4922464;29;20005;-72
2022/11/11 08:18:36;;;;;;;15.80;10.95;;;10.80;84.40;;;;;;4921866;29;20039;-73
2022/11/11 08:21:04;;;;;;;14.40;9.93;;;10.80;84.30;;;;;;4922248;29;20029;-72
2022/11/11 08:23:32;;;;;;;14.93;9.88;;;10.80;84.40;;;;;;4905947;29;20088;-73
2022/11/11 08:26:03;;;;;;;13.15;10.05;;;10.80;84.40;;;;;;4922047;29;20032;-72
2022/11/11 08:28:30;;;;;;;13.68;9.55;;;10.80;84.30;;;;;;4904409;29;20005;-73
2022/11/11 08:30:59;;;;;;;14.23;10.23;;;10.80;84.20;;;;;;4904957;29;20422;-73
2022/11/11 08:33:25;;;;;;;12.23;10.02;;;10.70;84.10;;;;;;4922084;29;20017;-73
2022/11/11 08:35:54;;;;;;;13.30;10.20;;;10.80;84.10;;;;;;4922842;29;20028;-75
2022/11/11 08:38:23;;;;;;;13.77;9.63;;;10.80;84.00;;;;;;4914691;29;20050;-72
2022/11/11 08:40:50;;;;;;;12.55;9.48;;;10.70;83.90;;;;;;4908262;29;20036;-71
2022/11/11 08:43:16;;;;;;;12.00;8.85;;;10.70;84.00;;;;;;4890195;29;20029;-71
2022/11/11 08:45:41;;;;;;;11.68;8.52;;;10.70;84.60;;;;;;4906718;29;20040;-71
2022/11/11 08:48:11;;;;;;;10.52;8.10;;;10.60;84.00;;;;;;4887965;29;20358;-72
2022/11/11 08:50:38;;;;;;;11.80;8.30;;;10.60;84.00;;;;;;4904397;29;20025;-71
2022/11/11 08:53:08;;;;;;;11.02;7.70;;;10.70;84.00;;;;;;4883929;29;20082;-72
2022/11/11 08:55:36;;;;;;;12.70;7.95;;;10.70;83.90;;;;;;4902983;29;20036;-72
2022/11/11 08:58:06;;;;;;;10.70;7.65;;;10.70;83.90;;;;;;4902101;29;20524;-72
2022/11/11 09:00:32;;;;;;;9.90;7.75;;;10.70;83.80;;;;;;4884552;29;20052;-73
2022/11/11 09:03:03;;;;;;;10.73;7.65;;;10.70;83.70;;;;;;4883452;29;20021;-73
2022/11/11 09:05:28;;;;;;;10.18;7.07;;;10.70;83.80;;;;;;4899833;29;20033;-73
2022/11/11 09:07:54;;;;;;;9.75;7.25;;;10.70;83.80;;;;;;4878047;29;20044;-72
2022/11/11 09:10:20;;;;;;;8.88;6.55;;;10.70;83.80;;;;;;4862553;29;20128;-73
2022/11/11 09:12:45;;;;;;;8.57;6.72;;;10.70;83.70;;;;;;4862217;29;20045;-73
2022/11/11 09:15:11;;;;;;;9.73;6.90;;;10.70;83.70;;;;;;4877764;29;20044;-72
2022/11/11 09:17:36;;;;;;;9.15;6.50;;;10.70;83.60;;;;;;4878084;29;20553;-73
2022/11/11 09:20:03;;;;;;;10.20;6.95;;;10.70;83.50;;;;;;4862085;29;20033;-73
2022/11/11 09:22:29;;;;;;;9.93;7.03;;;10.70;83.40;;;;;;4874965;29;20044;-72
2022/11/11 09:24:55;;;;;;;9.55;6.38;;;10.70;83.40;;;;;;4877118;29;20041;-71
2022/11/11 09:27:20;;;;;;;9.65;6.68;;;10.70;83.40;;;;;;4861819;29;20057;-72
2022/11/11 09:29:46;;;;;;;10.18;6.78;;;10.70;83.40;;;;;;4877165;29;20033;-71
2022/11/11 09:32:11;;;;;;;9.27;6.47;;;10.80;83.30;;;;;;4877339;29;20033;-73
2022/11/11 09:34:37;;;;;;;9.48;6.30;;;10.80;83.30;;;;;;4876982;29;20395;-71
2022/11/11 09:37:03;;;;;;;7.82;6.25;;;10.80;83.30;;;;;;4861248;29;20033;-72
2022/11/11 09:39:28;;;;;;;9.55;6.03;;;10.80;83.20;;;;;;4891532;29;20044;-72
2022/11/11 09:41:57;;;;;;;8.50;6.28;;;10.80;83.10;;;;;;4897990;29;20028;-74
2022/11/11 09:44:52;;;;;;;8.02;6.30;;;10.80;83.10;;;;;;4897827;29;20032;-75
2022/11/11 09:47:50;;;;;;;7.70;6.07;;;10.90;83.10;;;;;;4880927;29;20417;-73
2022/11/11 09:50:22;;;;;;;8.00;5.88;;;11.00;83.10;;;;;;4897563;29;20031;-73
2022/11/11 09:52:50;;;;;;;9.02;6.28;;;11.00;82.90;;;;;;4897838;29;20108;-72
2022/11/11 09:55:40;;;;;;;9.45;6.13;;;11.00;82.80;;;;;;4880661;29;20074;-73
2022/11/11 09:58:17;;;;;;;8.10;5.38;;;11.10;82.90;;;;;;4897551;29;20032;-72
2022/11/11 10:01:07;;;;;;;9.90;6.38;;;11.10;82.80;;;;;;5093063;22;20080;-26
2022/11/11 10:03:39;;;;;;;7.95;5.47;;;11.10;82.70;;;;;;5089494;28;20031;-27
2022/11/11 10:06:33;;;;;;;12.70;5.30;;;11.10;82.60;;;;;;5089136;28;20031;-27
2022/11/11 10:09:16;;;;;;;10.02;6.30;;;11.20;82.60;;;;;;5086125;28;20040;-27
2022/11/11 10:12:02;;;;;;;9.18;5.90;;;11.20;82.40;;;;;;5089091;28;20392;-25
2022/11/11 10:14:33;;;;;;;9.55;5.75;;;11.30;82.40;;;;;;5089022;28;20032;-27
2022/11/11 10:17:12;;;;;;;6.82;5.75;;;11.40;82.40;;;;;;5089134;28;20025;-26
2022/11/11 10:20:18;;;;;;;7.20;4.82;;;11.40;82.20;;;;;;5088871;28;20487;-26
2022/11/11 10:22:50;;;;;;;7.20;5.45;;;11.50;82.20;;;;;;5088984;28;20595;-26
2022/11/11 10:25:24;;;;;;;7.65;5.30;;;11.60;82.10;;;;;;5088694;28;20368;-27
2022/11/11 10:27:54;;;;;;;5.88;4.97;;;11.60;82.60;;;;;;5088853;28;20070;-26
2022/11/11 10:30:31;;;;;;;8.00;5.15;;;11.70;81.90;;;;;;5088629;28;20043;-28
2022/11/11 10:33:13;;;;;;;7.07;5.28;;;11.70;81.70;;;;;;5071145;28;20034;-27
2022/11/11 10:35:40;;;;;;;7.00;4.80;;;11.80;81.70;;;;;;5088930;28;20031;-28
2022/11/11 10:38:08;;;;;;;8.52;5.45;;;11.90;81.70;;;;;;5088556;28;20078;-27
2022/11/11 10:40:43;;;;;;;8.55;5.60;;;11.90;81.50;;;;;;5088469;28;20039;-27
2022/11/11 10:43:28;;;;;;;7.38;5.28;;;12.00;81.40;;;;;;5088493;28;20036;-26
2022/11/11 10:45:57;;;;;;;8.23;5.28;;;12.10;81.20;;;;;;5088435;28;20039;-27
2022/11/11 10:48:52;;;;;;;7.32;4.93;;;12.10;81.00;;;;;;5088467;28;20055;-27
2022/11/11 10:51:18;;;;;;;6.18;4.22;;;12.20;81.00;;;;;;5077233;28;20051;-27
2022/11/11 10:54:05;;;;;;;7.65;4.75;;;12.30;81.40;;;;;;5088221;28;20381;-27
2022/11/11 10:56:49;;;;;;;6.95;4.88;;;12.40;80.60;;;;;;5088279;28;20068;-26
2022/11/11 10:59:23;;;;;;;6.78;4.60;;;12.50;80.50;;;;;;5087799;28;20032;-27
2022/11/11 11:01:56;;;;;;;7.57;4.55;;;12.50;80.30;;;;;;5088044;28;20035;-26
2022/11/11 11:04:32;;;;;;;6.72;4.55;;;12.50;80.20;;;;;;5088104;28;20133;-26
2022/11/11 11:07:00;;;;;;;6.80;4.55;;;12.60;80.20;;;;;;5087986;28;20052;-28
2022/11/11 11:09:36;;;;;;;5.40;4.38;;;12.70;80.20;;;;;;5087881;28;20392;-27
2022/11/11 11:12:16;;;;;;;5.85;4.05;;;12.80;80.00;;;;;;5057373;28;20025;-26
2022/11/11 11:14:47;;;;;;;5.18;3.60;;;12.90;79.90;;;;;;5074436;28;20244;-27
2022/11/11 11:17:18;;;;;;;6.95;4.10;;;12.90;79.80;;;;;;5074238;28;20133;-27
2022/11/11 11:20:04;;;;;;;5.20;3.95;;;13.00;79.70;;;;;;5074119;28;20036;-26
2022/11/11 11:22:46;;;;;;;5.95;4.53;;;13.10;79.70;;;;;;5074207;28;20033;-26
2022/11/11 11:25:12;;;;;;;6.03;4.68;;;13.10;79.50;;;;;;5074514;28;20099;-27
2022/11/11 11:27:38;;;;;;;8.25;4.40;;;13.20;79.40;;;;;;5074070;28;20032;-27
2022/11/11 11:30:30;;;;;;;6.63;4.28;;;13.20;79.20;;;;;;5074012;28;20035;-27
2022/11/11 11:32:57;;;;;;;6.05;3.78;;;13.20;79.10;;;;;;5070131;28;20123;-27
2022/11/11 11:35:49;;;;;;;6.68;4.18;;;13.20;79.00;;;;;;5074092;28;20067;-27
2022/11/11 11:38:15;;;;;;;5.45;3.90;;;13.20;78.90;;;;;;5073717;28;20051;-28
2022/11/11 11:40:47;;;;;;;5.38;3.63;;;13.20;78.90;;;;;;5073721;28;20036;-27
2022/11/11 11:43:37;;;;;;;6.07;4.33;;;13.20;78.90;;;;;;5073890;28;20033;-27
2022/11/11 11:46:26;;;;;;;8.18;3.65;;;13.10;78.80;;;;;;5063782;28;20129;-27
2022/11/11 11:48:57;;;;;;;6.07;3.22;;;13.10;78.90;;;;;;5055760;28;20036;-27
2022/11/11 11:52:06;;;;;;;6.68;4.00;;;13.10;79.00;;;;;;5073527;28;20154;-26
2022/11/11 11:55:08;;;;;;;6.43;3.78;;;13.00;78.90;;;;;;5073535;28;20033;-25
2022/11/11 11:57:47;;;;;;;6.35;3.70;;;13.00;79.00;;;;;;5073234;28;20078;-26
2022/11/11 12:00:43;;;;;;;5.65;3.72;;;13.00;79.00;;;;;;5073256;28;20140;-26
2022/11/11 12:03:25;;;;;;;5.10;3.50;;;13.00;78.90;;;;;;5073655;28;20360;-26
2022/11/11 12:05:53;;;;;;;8.60;3.78;;;13.00;78.90;;;;;;5073299;28;20503;-27
2022/11/11 12:08:39;;;;;;;6.05;3.90;;;13.00;78.90;;;;;;5073231;28;20028;-26
2022/11/11 12:11:13;;;;;;;6.10;3.75;;;12.90;78.90;;;;;;5055128;28;20057;-27
2022/11/11 12:13:45;;;;;;;;;;;12.90;78.70;;;;;;5073796;28;20032;-26
2022/11/11 12:16:48;;;;;;;5.53;3.40;;;12.90;78.80;;;;;;5073144;28;19909;-26
2022/11/11 12:19:46;;;;;;;5.43;3.22;;;12.90;78.80;;;;;;4991166;28;20096;-28
2022/11/11 12:22:17;;;;;;;4.07;3.20;;;12.90;78.70;;;;;;4990423;28;20545;-27
2022/11/11 12:25:13;;;;;;;5.97;3.70;;;12.90;78.80;;;;;;5050187;28;20043;-26
2022/11/11 12:27:50;;;;;;;5.65;3.70;;;12.90;78.60;;;;;;5072663;28;20127;-26
2022/11/11 12:30:26;;;;;;;5.20;3.50;;;12.90;78.60;;;;;;5072648;28;20089;-33
2022/11/11 12:32:54;;;;;;;4.70;3.50;;;12.90;78.70;;;;;;5072846;28;20081;-33
2022/11/11 12:35:26;;;;;;;3.88;3.20;;;13.00;79.20;;;;;;5072996;28;20087;-33
2022/11/11 12:38:26;;;;;;;3.72;2.90;;;13.00;78.60;;;;;;5072797;28;20071;-33
2022/11/11 12:41:25;;;;;;;4.68;3.17;;;13.00;78.40;;;;;;5072674;28;20029;-33
2022/11/11 12:44:14;;;;;;;3.65;2.95;;;13.00;78.20;;;;;;5072808;28;20020;-27
2022/11/11 12:46:52;;;;;;;5.20;3.28;;;13.10;78.20;;;;;;5061994;28;20392;-33
2022/11/11 12:49:30;;;;;;;5.53;3.45;;;13.10;78.10;;;;;;5072450;28;20115;-33
2022/11/11 12:52:20;;;;;;;5.20;3.17;;;13.10;78.00;;;;;;5072365;28;20035;-33
2022/11/11 12:55:11;;;;;;;3.55;2.88;;;13.10;77.90;;;;;;5072342;28;20244;-33
2022/11/11 12:57:45;;;;;;;6.57;3.05;;;13.20;77.80;;;;;;5072090;28;20043;-32
2022/11/11 13:00:18;;;;;;;5.50;2.88;;;13.20;77.70;;;;;;5071965;28;20040;-33
2022/11/11 13:02:55;;;;;;;3.55;3.10;;;13.20;77.60;;;;;;5072282;28;20023;-34
2022/11/11 13:05:26;;;;;;;3.78;2.90;;;13.20;77.50;;;;;;5071880;28;20033;-34
2022/11/11 13:08:06;;;;;;;4.45;2.90;;;13.20;77.50;;;;;;5072027;28;20482;-34
2022/11/11 13:10:56;;;;;;;3.60;2.90;;;13.20;77.40;;;;;;5072090;28;20040;-32
2022/11/11 13:13:48;;;;;;;3.47;2.53;;;13.30;77.40;;;;;;5072336;28;20056;-31
2022/11/11 13:16:18;;;;;;;2.95;2.67;;;13.30;77.40;;;;;;5071975;28;20028;-32
2022/11/11 13:19:03;;;;;;;4.70;2.53;;;13.30;77.40;;;;;;5053894;28;20036;-32
2022/11/11 13:21:42;;;;;;;5.32;2.70;;;13.30;77.40;;;;;;5072194;28;20056;-34
2022/11/11 13:24:12;;;;;;;3.67;2.80;;;13.30;77.40;;;;;;5071667;28;20496;-34
2022/11/11 13:26:45;;;;;;;3.63;2.53;;;13.30;77.40;;;;;;5071699;28;20407;-34
2022/11/11 13:29:56;;;;;;;4.65;2.80;;;13.30;77.40;;;;;;5071703;28;20028;-33
2022/11/11 13:32:28;;;;;;;5.82;2.97;;;13.40;77.30;;;;;;5040534;28;20048;-33
2022/11/11 13:34:55;;;;;;;4.05;2.90;;;13.30;77.30;;;;;;5071507;28;20371;-32
2022/11/11 13:37:31;;;;;;;4.68;2.60;;;13.30;77.30;;;;;;5071509;28;20040;-34
2022/11/11 13:40:09;;;;;;;4.03;2.72;;;13.40;77.30;;;;;;5071470;28;20036;-32
2022/11/11 13:42:45;;;;;;;5.35;2.78;;;13.40;77.20;;;;;;5071722;28;20032;-34
2022/11/11 13:45:40;;;;;;;3.88;2.70;;;13.40;77.20;;;;;;5071805;28;20037;-34
2022/11/11 13:48:13;;;;;;;6.15;2.80;;;13.40;77.10;;;;;;5071445;28;20029;-35
2022/11/11 13:50:39;;;;;;;4.88;2.30;;;13.40;77.10;;;;;;5071456;28;20119;-34
2022/11/11 13:53:13;;;;;;;4.22;2.40;;;13.40;77.10;;;;;;5071449;28;20072;-34
2022/11/11 13:55:40;;;;;;;;;;;13.50;77.10;;;;;;5071940;28;20059;-35
2022/11/11 13:58:20;;;;;;;3.40;2.17;;;13.50;77.10;;;;;;5071569;28;20217;-37
2022/11/11 14:00:45;;;;;;;2.75;2.30;;;13.50;77.10;;;;;;5070976;28;20435;-34
2022/11/11 14:03:17;;;;;;;3.95;2.08;;;13.50;77.10;;;;;;5071372;28;20040;-35
2022/11/11 14:05:43;;;;;;;4.05;2.40;;;13.50;76.90;;;;;;5071408;28;20047;-34
2022/11/11 14:08:09;;;;;;;3.40;2.50;;;13.50;76.90;;;;;;5071374;28;20031;-35
2022/11/11 14:10:34;;;;;;;4.10;2.45;;;13.50;76.90;;;;;;5071270;28;20530;-34
2022/11/11 14:13:22;;;;;;;4.60;2.60;;;13.50;76.90;;;;;;5071114;28;20060;-35